sensor_id;sensor_type;location;lat;lon;timestamp;P1;durP1;ratioP1;P2;durP2;ratioP2
50126;SDS011;36024;47.974;16.398;2024-02-23T00:02:05;1.07;;;0.80;;
50126;SDS011;36024;47.974;16.398;2024-02-23T00:04:32;0.80;;;0.67;;
50126;SDS011;36024;47.974;16.398;2024-02-23T00:07:01;0.50;;;0.50;;
50126;SDS011;36024;47.974;16.398;2024-02-23T00:09:31;0.70;;;0.70;;
50126;SDS011;36024;47.974;16.398;2024-02-23T00:11:58;0.60;;;0.60;;
50126;SDS011;36024;47.974;16.398;2024-02-23T00:14:25;0.63;;;0.63;;
50126;SDS011;36024;47.974;16.398;2024-02-23T00:16:53;0.77;;;0.60;;
50126;SDS011;36024;47.974;16.398;2024-02-23T00:19:21;0.60;;;0.60;;
50126;SDS011;36024;47.974;16.398;2024-02-23T00:21:51;0.53;;;0.50;;
50126;SDS011;36024;47.974;16.398;2024-02-23T00:24:22;1.17;;;0.67;;
50126;SDS011;36024;47.974;16.398;2024-02-23T00:26:54;0.60;;;0.60;;
50126;SDS011;36024;47.974;16.398;2024-02-23T00:29:20;1.10;;;0.50;;
50126;SDS011;36024;47.974;16.398;2024-02-23T00:31:50;0.60;;;0.60;;
50126;SDS011;36024;47.974;16.398;2024-02-23T00:34:18;0.60;;;0.60;;
50126;SDS011;36024;47.974;16.398;2024-02-23T00:36:45;0.60;;;0.60;;
50126;SDS011;36024;47.974;16.398;2024-02-23T00:39:13;0.50;;;0.50;;
50126;SDS011;36024;47.974;16.398;2024-02-23T00:41:41;1.53;;;0.50;;
50126;SDS011;36024;47.974;16.398;2024-02-23T00:44:09;0.50;;;0.50;;
50126;SDS011;36024;47.974;16.398;2024-02-23T00:46:36;0.60;;;0.60;;
50126;SDS011;36024;47.974;16.398;2024-02-23T00:49:05;0.50;;;0.50;;
50126;SDS011;36024;47.974;16.398;2024-02-23T00:51:32;0.50;;;0.50;;
50126;SDS011;36024;47.974;16.398;2024-02-23T00:53:59;0.53;;;0.50;;
50126;SDS011;36024;47.974;16.398;2024-02-23T00:56:26;0.50;;;0.50;;
50126;SDS011;36024;47.974;16.398;2024-02-23T00:59:06;0.60;;;0.47;;
50126;SDS011;36024;47.974;16.398;2024-02-23T01:01:34;0.90;;;0.50;;
50126;SDS011;36024;47.974;16.398;2024-02-23T01:04:06;0.70;;;0.50;;
50126;SDS011;36024;47.974;16.398;2024-02-23T01:06:33;0.47;;;0.40;;
50126;SDS011;36024;47.974;16.398;2024-02-23T01:09:01;1.17;;;1.07;;
50126;SDS011;36024;47.974;16.398;2024-02-23T01:11:35;1.30;;;1.20;;
50126;SDS011;36024;47.974;16.398;2024-02-23T01:14:03;0.60;;;0.60;;
50126;SDS011;36024;47.974;16.398;2024-02-23T01:16:31;0.50;;;0.50;;
50126;SDS011;36024;47.974;16.398;2024-02-23T01:19:00;0.50;;;0.50;;
50126;SDS011;36024;47.974;16.398;2024-02-23T01:21:28;0.40;;;0.40;;
50126;SDS011;36024;47.974;16.398;2024-02-23T01:23:55;0.50;;;0.50;;
50126;SDS011;36024;47.974;16.398;2024-02-23T01:26:26;0.50;;;0.50;;
50126;SDS011;36024;47.974;16.398;2024-02-23T01:28:54;0.50;;;0.50;;
50126;SDS011;36024;47.974;16.398;2024-02-23T01:31:22;0.60;;;0.50;;
50126;SDS011;36024;47.974;16.398;2024-02-23T01:33:50;1.00;;;0.90;;
50126;SDS011;36024;47.974;16.398;2024-02-23T01:36:30;0.80;;;0.80;;
50126;SDS011;36024;47.974;16.398;2024-02-23T01:39:01;1.17;;;1.07;;
50126;SDS011;36024;47.974;16.398;2024-02-23T01:41:29;4.47;;;3.33;;
50126;SDS011;36024;47.974;16.398;2024-02-23T01:43:57;2.47;;;1.87;;
50126;SDS011;36024;47.974;16.398;2024-02-23T01:46:28;1.10;;;0.93;;
50126;SDS011;36024;47.974;16.398;2024-02-23T01:49:04;1.30;;;1.20;;
50126;SDS011;36024;47.974;16.398;2024-02-23T01:51:32;4.53;;;4.13;;
50126;SDS011;36024;47.974;16.398;2024-02-23T01:54:01;5.00;;;4.60;;
50126;SDS011;36024;47.974;16.398;2024-02-23T01:56:39;5.13;;;4.73;;
50126;SDS011;36024;47.974;16.398;2024-02-23T01:59:07;5.50;;;5.00;;
50126;SDS011;36024;47.974;16.398;2024-02-23T02:01:38;6.20;;;5.03;;
50126;SDS011;36024;47.974;16.398;2024-02-23T02:04:11;5.17;;;4.50;;
50126;SDS011;36024;47.974;16.398;2024-02-23T02:06:38;4.00;;;3.67;;
50126;SDS011;36024;47.974;16.398;2024-02-23T02:09:07;3.87;;;3.47;;
50126;SDS011;36024;47.974;16.398;2024-02-23T02:11:34;3.30;;;3.00;;
50126;SDS011;36024;47.974;16.398;2024-02-23T02:14:02;3.50;;;3.20;;
50126;SDS011;36024;47.974;16.398;2024-02-23T02:16:29;4.30;;;3.90;;
50126;SDS011;36024;47.974;16.398;2024-02-23T02:18:56;4.20;;;3.77;;
50126;SDS011;36024;47.974;16.398;2024-02-23T02:21:24;4.07;;;3.70;;
50126;SDS011;36024;47.974;16.398;2024-02-23T02:23:54;3.57;;;3.27;;
50126;SDS011;36024;47.974;16.398;2024-02-23T02:26:23;3.30;;;3.00;;
50126;SDS011;36024;47.974;16.398;2024-02-23T02:28:56;3.40;;;3.10;;
50126;SDS011;36024;47.974;16.398;2024-02-23T02:31:25;3.10;;;2.57;;
50126;SDS011;36024;47.974;16.398;2024-02-23T02:33:54;2.63;;;2.37;;
50126;SDS011;36024;47.974;16.398;2024-02-23T02:36:22;3.23;;;2.43;;
50126;SDS011;36024;47.974;16.398;2024-02-23T02:38:49;2.30;;;2.10;;
50126;SDS011;36024;47.974;16.398;2024-02-23T02:41:23;1.80;;;1.70;;
50126;SDS011;36024;47.974;16.398;2024-02-23T02:43:54;1.40;;;1.30;;
50126;SDS011;36024;47.974;16.398;2024-02-23T02:46:22;1.30;;;1.20;;
50126;SDS011;36024;47.974;16.398;2024-02-23T02:48:54;1.27;;;1.00;;
50126;SDS011;36024;47.974;16.398;2024-02-23T02:51:25;0.60;;;0.60;;
50126;SDS011;36024;47.974;16.398;2024-02-23T02:53:54;0.50;;;0.50;;
50126;SDS011;36024;47.974;16.398;2024-02-23T02:56:25;0.40;;;0.40;;
50126;SDS011;36024;47.974;16.398;2024-02-23T02:58:53;1.03;;;0.40;;
50126;SDS011;36024;47.974;16.398;2024-02-23T03:01:20;0.30;;;0.30;;
50126;SDS011;36024;47.974;16.398;2024-02-23T03:03:50;0.30;;;0.30;;
50126;SDS011;36024;47.974;16.398;2024-02-23T03:06:18;0.30;;;0.30;;
50126;SDS011;36024;47.974;16.398;2024-02-23T03:08:45;0.27;;;0.20;;
50126;SDS011;36024;47.974;16.398;2024-02-23T03:11:12;0.30;;;0.30;;
50126;SDS011;36024;47.974;16.398;2024-02-23T03:13:43;0.20;;;0.20;;
50126;SDS011;36024;47.974;16.398;2024-02-23T03:16:17;0.23;;;0.23;;
50126;SDS011;36024;47.974;16.398;2024-02-23T03:18:44;0.33;;;0.30;;
50126;SDS011;36024;47.974;16.398;2024-02-23T03:21:12;0.30;;;0.30;;
50126;SDS011;36024;47.974;16.398;2024-02-23T03:23:43;0.30;;;0.30;;
50126;SDS011;36024;47.974;16.398;2024-02-23T03:26:15;0.30;;;0.30;;
50126;SDS011;36024;47.974;16.398;2024-02-23T03:28:43;0.20;;;0.20;;
50126;SDS011;36024;47.974;16.398;2024-02-23T03:31:12;0.40;;;0.40;;
50126;SDS011;36024;47.974;16.398;2024-02-23T03:33:39;0.77;;;0.40;;
50126;SDS011;36024;47.974;16.398;2024-02-23T03:36:07;0.43;;;0.23;;
50126;SDS011;36024;47.974;16.398;2024-02-23T03:38:37;0.70;;;0.40;;
50126;SDS011;36024;47.974;16.398;2024-02-23T03:41:04;0.50;;;0.30;;
50126;SDS011;36024;47.974;16.398;2024-02-23T03:43:33;1.10;;;0.40;;
50126;SDS011;36024;47.974;16.398;2024-02-23T03:46:01;0.50;;;0.50;;
50126;SDS011;36024;47.974;16.398;2024-02-23T03:48:31;1.13;;;1.00;;
50126;SDS011;36024;47.974;16.398;2024-02-23T03:51:04;1.63;;;1.53;;
50126;SDS011;36024;47.974;16.398;2024-02-23T03:53:31;2.27;;;2.07;;
50126;SDS011;36024;47.974;16.398;2024-02-23T03:55:59;5.33;;;2.93;;
50126;SDS011;36024;47.974;16.398;2024-02-23T03:58:26;4.90;;;4.50;;
50126;SDS011;36024;47.974;16.398;2024-02-23T04:00:53;6.20;;;5.70;;
50126;SDS011;36024;47.974;16.398;2024-02-23T04:03:21;7.13;;;6.50;;
50126;SDS011;36024;47.974;16.398;2024-02-23T04:05:48;7.33;;;6.70;;
50126;SDS011;36024;47.974;16.398;2024-02-23T04:08:15;7.40;;;6.77;;
50126;SDS011;36024;47.974;16.398;2024-02-23T04:10:43;7.80;;;7.00;;
50126;SDS011;36024;47.974;16.398;2024-02-23T04:13:10;7.50;;;6.83;;
50126;SDS011;36024;47.974;16.398;2024-02-23T04:15:40;7.13;;;6.43;;
50126;SDS011;36024;47.974;16.398;2024-02-23T04:18:08;8.40;;;7.60;;
50126;SDS011;36024;47.974;16.398;2024-02-23T04:20:36;6.80;;;6.20;;
50126;SDS011;36024;47.974;16.398;2024-02-23T04:23:04;4.67;;;4.27;;
50126;SDS011;36024;47.974;16.398;2024-02-23T04:25:31;3.30;;;3.00;;
50126;SDS011;36024;47.974;16.398;2024-02-23T04:28:00;3.63;;;3.10;;
50126;SDS011;36024;47.974;16.398;2024-02-23T04:30:29;3.27;;;2.97;;
50126;SDS011;36024;47.974;16.398;2024-02-23T04:32:57;3.10;;;2.50;;
50126;SDS011;36024;47.974;16.398;2024-02-23T04:35:25;2.70;;;2.50;;
50126;SDS011;36024;47.974;16.398;2024-02-23T04:37:53;2.60;;;2.40;;
50126;SDS011;36024;47.974;16.398;2024-02-23T04:40:20;2.43;;;2.23;;
50126;SDS011;36024;47.974;16.398;2024-02-23T04:42:47;2.40;;;2.17;;
50126;SDS011;36024;47.974;16.398;2024-02-23T04:45:14;2.60;;;2.40;;
50126;SDS011;36024;47.974;16.398;2024-02-23T04:47:41;1.93;;;1.83;;
50126;SDS011;36024;47.974;16.398;2024-02-23T04:50:09;2.37;;;1.77;;
50126;SDS011;36024;47.974;16.398;2024-02-23T04:52:37;1.80;;;1.70;;
50126;SDS011;36024;47.974;16.398;2024-02-23T04:55:04;1.80;;;1.50;;
50126;SDS011;36024;47.974;16.398;2024-02-23T04:57:32;1.67;;;1.57;;
50126;SDS011;36024;47.974;16.398;2024-02-23T04:59:59;1.30;;;1.20;;
50126;SDS011;36024;47.974;16.398;2024-02-23T05:02:26;0.90;;;0.90;;
50126;SDS011;36024;47.974;16.398;2024-02-23T05:04:57;0.97;;;0.80;;
50126;SDS011;36024;47.974;16.398;2024-02-23T05:07:24;1.30;;;0.90;;
50126;SDS011;36024;47.974;16.398;2024-02-23T05:09:52;0.83;;;0.83;;
50126;SDS011;36024;47.974;16.398;2024-02-23T05:12:19;0.73;;;0.73;;
50126;SDS011;36024;47.974;16.398;2024-02-23T05:14:47;0.80;;;0.80;;
50126;SDS011;36024;47.974;16.398;2024-02-23T05:17:19;1.13;;;0.80;;
50126;SDS011;36024;47.974;16.398;2024-02-23T05:19:46;1.00;;;0.90;;
50126;SDS011;36024;47.974;16.398;2024-02-23T05:22:14;1.00;;;0.60;;
50126;SDS011;36024;47.974;16.398;2024-02-23T05:24:41;0.70;;;0.70;;
50126;SDS011;36024;47.974;16.398;2024-02-23T05:27:10;0.60;;;0.50;;
50126;SDS011;36024;47.974;16.398;2024-02-23T05:29:37;0.50;;;0.50;;
50126;SDS011;36024;47.974;16.398;2024-02-23T05:32:04;0.63;;;0.43;;
50126;SDS011;36024;47.974;16.398;2024-02-23T05:34:33;0.67;;;0.47;;
50126;SDS011;36024;47.974;16.398;2024-02-23T05:37:06;0.37;;;0.37;;
50126;SDS011;36024;47.974;16.398;2024-02-23T05:39:33;0.87;;;0.50;;
50126;SDS011;36024;47.974;16.398;2024-02-23T05:42:06;0.40;;;0.40;;
50126;SDS011;36024;47.974;16.398;2024-02-23T05:44:36;0.30;;;0.30;;
50126;SDS011;36024;47.974;16.398;2024-02-23T05:47:03;0.93;;;0.40;;
50126;SDS011;36024;47.974;16.398;2024-02-23T05:49:40;0.37;;;0.37;;
50126;SDS011;36024;47.974;16.398;2024-02-23T05:52:10;0.70;;;0.50;;
50126;SDS011;36024;47.974;16.398;2024-02-23T05:54:37;0.43;;;0.40;;
50126;SDS011;36024;47.974;16.398;2024-02-23T05:57:07;0.30;;;0.30;;
50126;SDS011;36024;47.974;16.398;2024-02-23T05:59:35;0.60;;;0.50;;
50126;SDS011;36024;47.974;16.398;2024-02-23T06:02:06;0.40;;;0.40;;
50126;SDS011;36024;47.974;16.398;2024-02-23T06:04:33;0.50;;;0.30;;
50126;SDS011;36024;47.974;16.398;2024-02-23T06:07:01;2.20;;;1.10;;
50126;SDS011;36024;47.974;16.398;2024-02-23T06:09:29;3.40;;;1.60;;
50126;SDS011;36024;47.974;16.398;2024-02-23T06:11:57;2.80;;;1.10;;
50126;SDS011;36024;47.974;16.398;2024-02-23T06:14:24;0.63;;;0.60;;
50126;SDS011;36024;47.974;16.398;2024-02-23T06:16:52;0.63;;;0.40;;
50126;SDS011;36024;47.974;16.398;2024-02-23T06:19:19;1.77;;;1.10;;
50126;SDS011;36024;47.974;16.398;2024-02-23T06:21:47;2.13;;;1.50;;
50126;SDS011;36024;47.974;16.398;2024-02-23T06:24:16;3.27;;;2.10;;
50126;SDS011;36024;47.974;16.398;2024-02-23T06:26:46;5.87;;;3.20;;
50126;SDS011;36024;47.974;16.398;2024-02-23T06:29:14;8.40;;;3.93;;
50126;SDS011;36024;47.974;16.398;2024-02-23T06:31:43;5.00;;;2.50;;
50126;SDS011;36024;47.974;16.398;2024-02-23T06:34:15;3.30;;;1.80;;
50126;SDS011;36024;47.974;16.398;2024-02-23T06:36:43;3.73;;;1.57;;
50126;SDS011;36024;47.974;16.398;2024-02-23T06:39:11;6.00;;;2.83;;
50126;SDS011;36024;47.974;16.398;2024-02-23T06:41:38;5.30;;;2.00;;
50126;SDS011;36024;47.974;16.398;2024-02-23T06:44:09;0.90;;;0.60;;
50126;SDS011;36024;47.974;16.398;2024-02-23T06:46:36;0.67;;;0.57;;
50126;SDS011;36024;47.974;16.398;2024-02-23T06:49:03;1.47;;;0.90;;
50126;SDS011;36024;47.974;16.398;2024-02-23T06:51:31;0.67;;;0.67;;
50126;SDS011;36024;47.974;16.398;2024-02-23T06:54:02;0.83;;;0.80;;
50126;SDS011;36024;47.974;16.398;2024-02-23T06:56:30;1.20;;;0.87;;
50126;SDS011;36024;47.974;16.398;2024-02-23T06:58:58;1.77;;;0.90;;
50126;SDS011;36024;47.974;16.398;2024-02-23T07:01:25;1.03;;;1.00;;
50126;SDS011;36024;47.974;16.398;2024-02-23T07:03:53;1.23;;;1.13;;
50126;SDS011;36024;47.974;16.398;2024-02-23T07:06:21;2.50;;;1.30;;
50126;SDS011;36024;47.974;16.398;2024-02-23T07:08:48;1.57;;;1.30;;
50126;SDS011;36024;47.974;16.398;2024-02-23T07:11:16;1.50;;;1.30;;
50126;SDS011;36024;47.974;16.398;2024-02-23T07:13:43;1.47;;;1.20;;
50126;SDS011;36024;47.974;16.398;2024-02-23T07:16:12;3.57;;;3.00;;
50126;SDS011;36024;47.974;16.398;2024-02-23T07:18:40;4.67;;;4.17;;
50126;SDS011;36024;47.974;16.398;2024-02-23T07:21:07;13.80;;;7.73;;
50126;SDS011;36024;47.974;16.398;2024-02-23T07:23:35;9.53;;;7.53;;
50126;SDS011;36024;47.974;16.398;2024-02-23T07:26:02;14.63;;;9.37;;
50126;SDS011;36024;47.974;16.398;2024-02-23T07:28:29;8.07;;;6.93;;
50126;SDS011;36024;47.974;16.398;2024-02-23T07:30:57;7.53;;;6.10;;
50126;SDS011;36024;47.974;16.398;2024-02-23T07:33:24;9.10;;;6.60;;
50126;SDS011;36024;47.974;16.398;2024-02-23T07:35:51;12.83;;;9.40;;
50126;SDS011;36024;47.974;16.398;2024-02-23T07:38:19;4.83;;;3.97;;
50126;SDS011;36024;47.974;16.398;2024-02-23T07:40:46;11.03;;;8.50;;
50126;SDS011;36024;47.974;16.398;2024-02-23T07:43:13;9.43;;;7.97;;
50126;SDS011;36024;47.974;16.398;2024-02-23T07:45:41;5.13;;;3.20;;
50126;SDS011;36024;47.974;16.398;2024-02-23T07:48:09;2.93;;;2.30;;
50126;SDS011;36024;47.974;16.398;2024-02-23T07:50:36;4.47;;;3.40;;
50126;SDS011;36024;47.974;16.398;2024-02-23T07:53:03;5.50;;;4.53;;
50126;SDS011;36024;47.974;16.398;2024-02-23T07:55:33;5.30;;;4.80;;
50126;SDS011;36024;47.974;16.398;2024-02-23T07:58:01;5.03;;;4.43;;
50126;SDS011;36024;47.974;16.398;2024-02-23T08:00:29;3.40;;;3.10;;
50126;SDS011;36024;47.974;16.398;2024-02-23T08:02:57;3.10;;;2.80;;
50126;SDS011;36024;47.974;16.398;2024-02-23T08:05:26;2.70;;;2.50;;
50126;SDS011;36024;47.974;16.398;2024-02-23T08:07:53;3.53;;;2.80;;
50126;SDS011;36024;47.974;16.398;2024-02-23T08:10:21;2.87;;;2.40;;
50126;SDS011;36024;47.974;16.398;2024-02-23T08:12:49;2.77;;;2.00;;
50126;SDS011;36024;47.974;16.398;2024-02-23T08:15:16;2.20;;;2.00;;
50126;SDS011;36024;47.974;16.398;2024-02-23T08:17:43;3.40;;;2.70;;
50126;SDS011;36024;47.974;16.398;2024-02-23T08:20:13;3.07;;;2.00;;
50126;SDS011;36024;47.974;16.398;2024-02-23T08:22:41;2.60;;;2.40;;
50126;SDS011;36024;47.974;16.398;2024-02-23T08:25:08;4.00;;;3.60;;
50126;SDS011;36024;47.974;16.398;2024-02-23T08:27:43;15.70;;;14.40;;
50126;SDS011;36024;47.974;16.398;2024-02-23T08:30:12;17.07;;;15.77;;
50126;SDS011;36024;47.974;16.398;2024-02-23T08:32:42;13.57;;;12.37;;
50126;SDS011;36024;47.974;16.398;2024-02-23T08:35:11;4.20;;;3.90;;
50126;SDS011;36024;47.974;16.398;2024-02-23T08:37:39;1.87;;;1.70;;
50126;SDS011;36024;47.974;16.398;2024-02-23T08:40:07;2.47;;;1.80;;
50126;SDS011;36024;47.974;16.398;2024-02-23T08:42:38;1.90;;;1.50;;
50126;SDS011;36024;47.974;16.398;2024-02-23T08:45:06;2.93;;;2.47;;
50126;SDS011;36024;47.974;16.398;2024-02-23T08:47:34;2.10;;;1.77;;
50126;SDS011;36024;47.974;16.398;2024-02-23T08:50:03;2.80;;;1.70;;
50126;SDS011;36024;47.974;16.398;2024-02-23T08:52:33;4.20;;;1.70;;
50126;SDS011;36024;47.974;16.398;2024-02-23T08:55:00;2.50;;;1.30;;
50126;SDS011;36024;47.974;16.398;2024-02-23T08:57:29;2.13;;;1.43;;
50126;SDS011;36024;47.974;16.398;2024-02-23T09:00:03;1.40;;;1.30;;
50126;SDS011;36024;47.974;16.398;2024-02-23T09:02:40;2.40;;;1.93;;
50126;SDS011;36024;47.974;16.398;2024-02-23T09:05:14;1.23;;;1.13;;
50126;SDS011;36024;47.974;16.398;2024-02-23T09:07:45;1.20;;;0.93;;
50126;SDS011;36024;47.974;16.398;2024-02-23T09:10:14;1.00;;;0.90;;
50126;SDS011;36024;47.974;16.398;2024-02-23T09:12:48;1.33;;;0.80;;
50126;SDS011;36024;47.974;16.398;2024-02-23T09:15:19;1.10;;;0.80;;
50126;SDS011;36024;47.974;16.398;2024-02-23T09:17:48;1.13;;;0.90;;
50126;SDS011;36024;47.974;16.398;2024-02-23T09:20:17;1.17;;;0.50;;
50126;SDS011;36024;47.974;16.398;2024-02-23T09:22:49;0.60;;;0.60;;
50126;SDS011;36024;47.974;16.398;2024-02-23T09:25:23;0.77;;;0.77;;
50126;SDS011;36024;47.974;16.398;2024-02-23T09:27:56;1.43;;;0.80;;
50126;SDS011;36024;47.974;16.398;2024-02-23T09:30:23;2.17;;;0.70;;
50126;SDS011;36024;47.974;16.398;2024-02-23T09:32:55;1.33;;;0.73;;
50126;SDS011;36024;47.974;16.398;2024-02-23T09:35:24;0.80;;;0.80;;
50126;SDS011;36024;47.974;16.398;2024-02-23T09:37:55;0.80;;;0.70;;
50126;SDS011;36024;47.974;16.398;2024-02-23T09:40:29;1.03;;;0.80;;
50126;SDS011;36024;47.974;16.398;2024-02-23T09:42:59;1.67;;;0.80;;
50126;SDS011;36024;47.974;16.398;2024-02-23T09:45:31;0.50;;;0.50;;
50126;SDS011;36024;47.974;16.398;2024-02-23T09:47:59;0.80;;;0.60;;
50126;SDS011;36024;47.974;16.398;2024-02-23T09:50:27;0.97;;;0.80;;
50126;SDS011;36024;47.974;16.398;2024-02-23T09:52:56;0.73;;;0.73;;
50126;SDS011;36024;47.974;16.398;2024-02-23T09:55:47;1.10;;;0.90;;
50126;SDS011;36024;47.974;16.398;2024-02-23T09:58:15;1.00;;;0.80;;
50126;SDS011;36024;47.974;16.398;2024-02-23T10:00:48;0.83;;;0.83;;
50126;SDS011;36024;47.974;16.398;2024-02-23T10:03:15;0.83;;;0.70;;
50126;SDS011;36024;47.974;16.398;2024-02-23T10:05:54;0.87;;;0.70;;
50126;SDS011;36024;47.974;16.398;2024-02-23T10:08:24;0.57;;;0.50;;
50126;SDS011;36024;47.974;16.398;2024-02-23T10:10:52;0.90;;;0.60;;
50126;SDS011;36024;47.974;16.398;2024-02-23T10:13:20;0.87;;;0.70;;
50126;SDS011;36024;47.974;16.398;2024-02-23T10:15:48;3.23;;;2.37;;
50126;SDS011;36024;47.974;16.398;2024-02-23T10:18:42;1.00;;;0.83;;
50126;SDS011;36024;47.974;16.398;2024-02-23T10:21:12;1.53;;;0.93;;
50126;SDS011;36024;47.974;16.398;2024-02-23T10:23:43;1.13;;;1.00;;
50126;SDS011;36024;47.974;16.398;2024-02-23T10:26:14;0.80;;;0.80;;
50126;SDS011;36024;47.974;16.398;2024-02-23T10:28:46;1.70;;;1.27;;
50126;SDS011;36024;47.974;16.398;2024-02-23T10:31:22;1.70;;;1.30;;
50126;SDS011;36024;47.974;16.398;2024-02-23T10:33:58;1.60;;;1.50;;
50126;SDS011;36024;47.974;16.398;2024-02-23T10:36:28;2.63;;;1.70;;
50126;SDS011;36024;47.974;16.398;2024-02-23T10:38:58;1.70;;;1.60;;
50126;SDS011;36024;47.974;16.398;2024-02-23T10:41:32;1.67;;;1.43;;
50126;SDS011;36024;47.974;16.398;2024-02-23T10:44:03;1.30;;;1.20;;
50126;SDS011;36024;47.974;16.398;2024-02-23T10:46:33;1.10;;;1.00;;
50126;SDS011;36024;47.974;16.398;2024-02-23T10:49:03;1.07;;;1.07;;
50126;SDS011;36024;47.974;16.398;2024-02-23T10:51:34;1.70;;;1.60;;
50126;SDS011;36024;47.974;16.398;2024-02-23T10:54:09;1.80;;;1.40;;
50126;SDS011;36024;47.974;16.398;2024-02-23T10:56:38;1.53;;;1.10;;
50126;SDS011;36024;47.974;16.398;2024-02-23T10:59:08;0.70;;;0.70;;
50126;SDS011;36024;47.974;16.398;2024-02-23T11:01:35;0.70;;;0.57;;
50126;SDS011;36024;47.974;16.398;2024-02-23T11:04:03;0.80;;;0.80;;
50126;SDS011;36024;47.974;16.398;2024-02-23T11:06:32;0.67;;;0.67;;
50126;SDS011;36024;47.974;16.398;2024-02-23T11:09:06;1.90;;;0.77;;
50126;SDS011;36024;47.974;16.398;2024-02-23T11:11:38;0.70;;;0.70;;
50126;SDS011;36024;47.974;16.398;2024-02-23T11:14:09;1.13;;;1.03;;
50126;SDS011;36024;47.974;16.398;2024-02-23T11:16:42;1.30;;;1.20;;
50126;SDS011;36024;47.974;16.398;2024-02-23T11:19:13;1.40;;;1.30;;
50126;SDS011;36024;47.974;16.398;2024-02-23T11:21:51;1.30;;;1.20;;
50126;SDS011;36024;47.974;16.398;2024-02-23T11:24:25;1.30;;;1.20;;
50126;SDS011;36024;47.974;16.398;2024-02-23T11:26:57;1.37;;;1.27;;
50126;SDS011;36024;47.974;16.398;2024-02-23T11:29:34;1.27;;;1.10;;
50126;SDS011;36024;47.974;16.398;2024-02-23T11:32:15;1.20;;;1.10;;
50126;SDS011;36024;47.974;16.398;2024-02-23T11:34:58;0.97;;;0.97;;
50126;SDS011;36024;47.974;16.398;2024-02-23T11:37:30;1.13;;;1.00;;
50126;SDS011;36024;47.974;16.398;2024-02-23T11:40:00;1.50;;;1.40;;
50126;SDS011;36024;47.974;16.398;2024-02-23T11:42:30;1.43;;;1.17;;
50126;SDS011;36024;47.974;16.398;2024-02-23T11:45:02;2.90;;;1.20;;
50126;SDS011;36024;47.974;16.398;2024-02-23T11:47:33;1.20;;;1.10;;
50126;SDS011;36024;47.974;16.398;2024-02-23T11:50:06;1.00;;;1.00;;
50126;SDS011;36024;47.974;16.398;2024-02-23T11:52:34;1.50;;;1.20;;
50126;SDS011;36024;47.974;16.398;2024-02-23T11:55:04;1.30;;;1.20;;
50126;SDS011;36024;47.974;16.398;2024-02-23T11:57:36;3.63;;;1.50;;
50126;SDS011;36024;47.974;16.398;2024-02-23T12:00:14;1.40;;;1.30;;
50126;SDS011;36024;47.974;16.398;2024-02-23T12:02:45;1.73;;;1.50;;
50126;SDS011;36024;47.974;16.398;2024-02-23T12:05:56;1.57;;;1.40;;
50126;SDS011;36024;47.974;16.398;2024-02-23T12:08:26;1.73;;;1.60;;
50126;SDS011;36024;47.974;16.398;2024-02-23T12:10:59;1.70;;;1.40;;
50126;SDS011;36024;47.974;16.398;2024-02-23T12:13:31;1.40;;;1.30;;
50126;SDS011;36024;47.974;16.398;2024-02-23T12:16:00;1.90;;;1.60;;
50126;SDS011;36024;47.974;16.398;2024-02-23T12:18:28;1.80;;;1.70;;
50126;SDS011;36024;47.974;16.398;2024-02-23T12:21:06;1.63;;;1.40;;
50126;SDS011;36024;47.974;16.398;2024-02-23T12:23:43;1.50;;;1.40;;
50126;SDS011;36024;47.974;16.398;2024-02-23T12:26:13;1.90;;;1.80;;
50126;SDS011;36024;47.974;16.398;2024-02-23T12:28:41;2.10;;;1.90;;
50126;SDS011;36024;47.974;16.398;2024-02-23T12:31:09;2.40;;;2.20;;
50126;SDS011;36024;47.974;16.398;2024-02-23T12:33:38;1.87;;;1.77;;
50126;SDS011;36024;47.974;16.398;2024-02-23T12:36:11;2.10;;;1.87;;
50126;SDS011;36024;47.974;16.398;2024-02-23T12:38:38;2.47;;;2.27;;
50126;SDS011;36024;47.974;16.398;2024-02-23T12:41:06;2.17;;;2.00;;
50126;SDS011;36024;47.974;16.398;2024-02-23T12:43:36;2.50;;;2.00;;
50126;SDS011;36024;47.974;16.398;2024-02-23T12:46:10;1.90;;;1.80;;
50126;SDS011;36024;47.974;16.398;2024-02-23T12:48:41;2.40;;;2.20;;
50126;SDS011;36024;47.974;16.398;2024-02-23T12:51:10;12.17;;;10.93;;
50126;SDS011;36024;47.974;16.398;2024-02-23T12:53:38;6.07;;;5.47;;
50126;SDS011;36024;47.974;16.398;2024-02-23T12:58:36;42.13;;;28.57;;
50126;SDS011;36024;47.974;16.398;2024-02-23T13:01:04;10.37;;;8.90;;
50126;SDS011;36024;47.974;16.398;2024-02-23T13:03:34;10.80;;;9.70;;
50126;SDS011;36024;47.974;16.398;2024-02-23T13:06:04;3.77;;;3.47;;
50126;SDS011;36024;47.974;16.398;2024-02-23T13:08:33;2.70;;;2.50;;
50126;SDS011;36024;47.974;16.398;2024-02-23T13:11:02;2.67;;;2.47;;
50126;SDS011;36024;47.974;16.398;2024-02-23T13:13:32;3.60;;;3.40;;
50126;SDS011;36024;47.974;16.398;2024-02-23T13:16:02;3.10;;;2.80;;
50126;SDS011;36024;47.974;16.398;2024-02-23T13:18:30;2.70;;;2.50;;
50126;SDS011;36024;47.974;16.398;2024-02-23T13:20:57;2.80;;;2.60;;
50126;SDS011;36024;47.974;16.398;2024-02-23T13:23:25;3.20;;;2.60;;
50126;SDS011;36024;47.974;16.398;2024-02-23T13:25:54;3.30;;;3.00;;
50126;SDS011;36024;47.974;16.398;2024-02-23T13:28:25;4.13;;;3.73;;
50126;SDS011;36024;47.974;16.398;2024-02-23T13:30:57;3.20;;;2.90;;
50126;SDS011;36024;47.974;16.398;2024-02-23T13:33:25;2.50;;;2.27;;
50126;SDS011;36024;47.974;16.398;2024-02-23T13:35:53;3.63;;;2.10;;
50126;SDS011;36024;47.974;16.398;2024-02-23T13:38:25;2.47;;;2.27;;
50126;SDS011;36024;47.974;16.398;2024-02-23T13:40:59;2.40;;;2.20;;
50126;SDS011;36024;47.974;16.398;2024-02-23T13:43:29;2.50;;;2.20;;
50126;SDS011;36024;47.974;16.398;2024-02-23T13:45:56;2.83;;;2.37;;
50126;SDS011;36024;47.974;16.398;2024-02-23T13:48:23;2.30;;;2.10;;
50126;SDS011;36024;47.974;16.398;2024-02-23T13:50:59;2.50;;;2.13;;
50126;SDS011;36024;47.974;16.398;2024-02-23T13:53:31;2.70;;;2.50;;
50126;SDS011;36024;47.974;16.398;2024-02-23T13:56:00;2.97;;;2.47;;
50126;SDS011;36024;47.974;16.398;2024-02-23T13:58:31;2.40;;;2.20;;
50126;SDS011;36024;47.974;16.398;2024-02-23T14:01:00;3.00;;;2.10;;
50126;SDS011;36024;47.974;16.398;2024-02-23T14:03:28;2.50;;;2.30;;
50126;SDS011;36024;47.974;16.398;2024-02-23T14:05:57;2.97;;;2.53;;
50126;SDS011;36024;47.974;16.398;2024-02-23T14:08:30;2.70;;;2.20;;
50126;SDS011;36024;47.974;16.398;2024-02-23T14:11:01;2.73;;;2.53;;
50126;SDS011;36024;47.974;16.398;2024-02-23T14:13:31;4.87;;;3.10;;
50126;SDS011;36024;47.974;16.398;2024-02-23T14:15:59;2.53;;;2.33;;
50126;SDS011;36024;47.974;16.398;2024-02-23T14:18:28;2.63;;;2.43;;
50126;SDS011;36024;47.974;16.398;2024-02-23T14:20:56;3.23;;;2.93;;
50126;SDS011;36024;47.974;16.398;2024-02-23T14:23:27;3.03;;;2.73;;
50126;SDS011;36024;47.974;16.398;2024-02-23T14:25:55;3.30;;;2.63;;
50126;SDS011;36024;47.974;16.398;2024-02-23T14:28:22;2.93;;;2.70;;
50126;SDS011;36024;47.974;16.398;2024-02-23T14:30:50;3.77;;;3.40;;
50126;SDS011;36024;47.974;16.398;2024-02-23T14:33:20;2.67;;;2.37;;
50126;SDS011;36024;47.974;16.398;2024-02-23T14:35:51;4.90;;;3.23;;
50126;SDS011;36024;47.974;16.398;2024-02-23T14:38:24;2.30;;;2.10;;
50126;SDS011;36024;47.974;16.398;2024-02-23T14:40:52;2.30;;;2.10;;
50126;SDS011;36024;47.974;16.398;2024-02-23T14:43:19;2.57;;;1.93;;
50126;SDS011;36024;47.974;16.398;2024-02-23T14:45:46;2.47;;;2.17;;
50126;SDS011;36024;47.974;16.398;2024-02-23T14:48:14;4.43;;;3.83;;
50126;SDS011;36024;47.974;16.398;2024-02-23T14:50:42;4.70;;;4.03;;